sensor_id;sensor_type;location;lat;lon;timestamp;P1;durP1;ratioP1;P2;durP2;ratioP2
22648;SDS011;11491;41.942;24.220;2022-07-22T00:01:32;9.10;;;6.70;;
22648;SDS011;11491;41.942;24.220;2022-07-22T00:03:59;7.82;;;6.22;;
22648;SDS011;11491;41.942;24.220;2022-07-22T00:06:27;8.02;;;6.85;;
22648;SDS011;11491;41.942;24.220;2022-07-22T00:08:55;9.02;;;6.57;;
22648;SDS011;11491;41.942;24.220;2022-07-22T00:11:22;7.35;;;6.13;;
22648;SDS011;11491;41.942;24.220;2022-07-22T00:13:49;7.60;;;6.40;;
22648;SDS011;11491;41.942;24.220;2022-07-22T00:16:16;9.68;;;6.65;;
22648;SDS011;11491;41.942;24.220;2022-07-22T00:18:43;7.78;;;6.28;;
22648;SDS011;11491;41.942;24.220;2022-07-22T00:21:10;9.45;;;6.93;;
22648;SDS011;11491;41.942;24.220;2022-07-22T00:23:37;7.22;;;6.35;;
22648;SDS011;11491;41.942;24.220;2022-07-22T00:26:05;8.30;;;7.00;;
22648;SDS011;11491;41.942;24.220;2022-07-22T00:28:32;7.47;;;6.53;;
22648;SDS011;11491;41.942;24.220;2022-07-22T00:30:58;7.10;;;6.38;;
22648;SDS011;11491;41.942;24.220;2022-07-22T00:33:25;7.15;;;6.45;;
22648;SDS011;11491;41.942;24.220;2022-07-22T00:35:52;7.85;;;7.00;;
22648;SDS011;11491;41.942;24.220;2022-07-22T00:38:19;8.13;;;6.68;;
22648;SDS011;11491;41.942;24.220;2022-07-22T00:40:46;8.88;;;7.70;;
22648;SDS011;11491;41.942;24.220;2022-07-22T00:43:15;8.93;;;6.70;;
22648;SDS011;11491;41.942;24.220;2022-07-22T00:45:42;7.35;;;6.18;;
22648;SDS011;11491;41.942;24.220;2022-07-22T00:48:09;7.90;;;6.60;;
22648;SDS011;11491;41.942;24.220;2022-07-22T00:50:36;9.50;;;6.65;;
22648;SDS011;11491;41.942;24.220;2022-07-22T00:53:03;9.32;;;6.47;;
22648;SDS011;11491;41.942;24.220;2022-07-22T00:55:30;9.00;;;6.15;;
22648;SDS011;11491;41.942;24.220;2022-07-22T00:57:58;7.63;;;6.50;;
22648;SDS011;11491;41.942;24.220;2022-07-22T01:00:27;8.65;;;6.30;;
22648;SDS011;11491;41.942;24.220;2022-07-22T01:02:54;9.85;;;6.93;;
22648;SDS011;11491;41.942;24.220;2022-07-22T01:05:21;9.60;;;6.00;;
22648;SDS011;11491;41.942;24.220;2022-07-22T01:07:48;8.43;;;6.53;;
22648;SDS011;11491;41.942;24.220;2022-07-22T01:10:15;6.95;;;6.05;;
22648;SDS011;11491;41.942;24.220;2022-07-22T01:12:41;6.93;;;6.22;;
22648;SDS011;11491;41.942;24.220;2022-07-22T01:15:09;7.88;;;6.38;;
22648;SDS011;11491;41.942;24.220;2022-07-22T01:17:37;9.23;;;6.07;;
22648;SDS011;11491;41.942;24.220;2022-07-22T01:20:06;9.23;;;7.00;;
22648;SDS011;11491;41.942;24.220;2022-07-22T01:22:34;8.38;;;6.70;;
22648;SDS011;11491;41.942;24.220;2022-07-22T01:25:01;9.50;;;6.07;;
22648;SDS011;11491;41.942;24.220;2022-07-22T01:27:27;9.90;;;6.30;;
22648;SDS011;11491;41.942;24.220;2022-07-22T01:29:54;11.05;;;6.65;;
22648;SDS011;11491;41.942;24.220;2022-07-22T01:32:21;7.13;;;5.93;;
22648;SDS011;11491;41.942;24.220;2022-07-22T01:34:48;8.18;;;6.35;;
22648;SDS011;11491;41.942;24.220;2022-07-22T01:37:16;8.35;;;6.28;;
22648;SDS011;11491;41.942;24.220;2022-07-22T01:39:43;8.75;;;6.30;;
22648;SDS011;11491;41.942;24.220;2022-07-22T01:42:10;8.57;;;6.40;;
22648;SDS011;11491;41.942;24.220;2022-07-22T01:44:37;11.55;;;6.50;;
22648;SDS011;11491;41.942;24.220;2022-07-22T01:47:03;7.85;;;6.63;;
22648;SDS011;11491;41.942;24.220;2022-07-22T01:49:30;8.15;;;6.20;;
22648;SDS011;11491;41.942;24.220;2022-07-22T01:51:58;7.03;;;6.22;;
22648;SDS011;11491;41.942;24.220;2022-07-22T01:54:26;6.78;;;5.70;;
22648;SDS011;11491;41.942;24.220;2022-07-22T01:56:53;8.55;;;6.25;;
22648;SDS011;11491;41.942;24.220;2022-07-22T01:59:20;7.93;;;6.60;;
22648;SDS011;11491;41.942;24.220;2022-07-22T02:01:47;7.85;;;6.38;;
22648;SDS011;11491;41.942;24.220;2022-07-22T02:04:14;8.82;;;6.47;;
22648;SDS011;11491;41.942;24.220;2022-07-22T02:06:41;9.20;;;7.05;;
22648;SDS011;11491;41.942;24.220;2022-07-22T02:09:07;7.95;;;7.15;;
22648;SDS011;11491;41.942;24.220;2022-07-22T02:11:36;7.82;;;6.45;;
22648;SDS011;11491;41.942;24.220;2022-07-22T02:14:02;9.40;;;6.60;;
22648;SDS011;11491;41.942;24.220;2022-07-22T02:16:29;7.88;;;6.65;;
22648;SDS011;11491;41.942;24.220;2022-07-22T02:18:56;16.60;;;6.88;;
22648;SDS011;11491;41.942;24.220;2022-07-22T02:21:23;8.20;;;6.65;;
22648;SDS011;11491;41.942;24.220;2022-07-22T02:23:50;7.50;;;6.18;;
22648;SDS011;11491;41.942;24.220;2022-07-22T02:26:16;8.90;;;6.80;;
22648;SDS011;11491;41.942;24.220;2022-07-22T02:28:45;10.52;;;7.13;;
22648;SDS011;11491;41.942;24.220;2022-07-22T02:31:11;7.15;;;6.18;;
22648;SDS011;11491;41.942;24.220;2022-07-22T02:33:38;10.27;;;6.90;;
22648;SDS011;11491;41.942;24.220;2022-07-22T02:36:05;9.52;;;6.90;;
22648;SDS011;11491;41.942;24.220;2022-07-22T02:38:32;10.98;;;7.07;;
22648;SDS011;11491;41.942;24.220;2022-07-22T02:40:59;7.95;;;6.15;;
22648;SDS011;11491;41.942;24.220;2022-07-22T02:43:26;9.18;;;6.50;;
22648;SDS011;11491;41.942;24.220;2022-07-22T02:45:54;7.07;;;6.38;;
22648;SDS011;11491;41.942;24.220;2022-07-22T02:48:21;10.10;;;7.20;;
22648;SDS011;11491;41.942;24.220;2022-07-22T02:50:48;8.57;;;7.40;;
22648;SDS011;11491;41.942;24.220;2022-07-22T02:53:15;8.02;;;6.60;;
22648;SDS011;11491;41.942;24.220;2022-07-22T02:55:42;8.73;;;6.80;;
22648;SDS011;11491;41.942;24.220;2022-07-22T02:58:08;8.95;;;6.78;;
22648;SDS011;11491;41.942;24.220;2022-07-22T03:00:36;8.38;;;7.10;;
22648;SDS011;11491;41.942;24.220;2022-07-22T03:03:05;8.70;;;6.78;;
22648;SDS011;11491;41.942;24.220;2022-07-22T03:05:32;7.78;;;6.68;;
22648;SDS011;11491;41.942;24.220;2022-07-22T03:07:59;7.65;;;6.90;;
22648;SDS011;11491;41.942;24.220;2022-07-22T03:10:26;7.60;;;6.13;;
22648;SDS011;11491;41.942;24.220;2022-07-22T03:12:52;11.20;;;7.00;;
22648;SDS011;11491;41.942;24.220;2022-07-22T03:15:19;9.85;;;7.40;;
22648;SDS011;11491;41.942;24.220;2022-07-22T03:17:46;10.18;;;7.30;;
22648;SDS011;11491;41.942;24.220;2022-07-22T03:20:14;11.18;;;7.25;;
22648;SDS011;11491;41.942;24.220;2022-07-22T03:22:41;10.07;;;7.05;;
22648;SDS011;11491;41.942;24.220;2022-07-22T03:25:08;7.47;;;6.60;;
22648;SDS011;11491;41.942;24.220;2022-07-22T03:27:36;8.55;;;7.15;;
22648;SDS011;11491;41.942;24.220;2022-07-22T03:30:03;8.55;;;7.30;;
22648;SDS011;11491;41.942;24.220;2022-07-22T03:32:31;8.18;;;6.57;;
22648;SDS011;11491;41.942;24.220;2022-07-22T03:34:58;7.90;;;7.10;;
22648;SDS011;11491;41.942;24.220;2022-07-22T03:37:26;9.07;;;7.05;;
22648;SDS011;11491;41.942;24.220;2022-07-22T03:39:53;15.98;;;7.18;;
22648;SDS011;11491;41.942;24.220;2022-07-22T03:42:19;11.25;;;7.72;;
22648;SDS011;11491;41.942;24.220;2022-07-22T03:44:46;9.00;;;6.88;;
22648;SDS011;11491;41.942;24.220;2022-07-22T03:47:16;12.23;;;7.45;;
22648;SDS011;11491;41.942;24.220;2022-07-22T03:49:44;8.18;;;7.35;;
22648;SDS011;11491;41.942;24.220;2022-07-22T03:52:11;11.45;;;7.53;;
22648;SDS011;11491;41.942;24.220;2022-07-22T03:54:39;9.35;;;7.70;;
22648;SDS011;11491;41.942;24.220;2022-07-22T03:57:06;10.50;;;7.63;;
22648;SDS011;11491;41.942;24.220;2022-07-22T03:59:33;11.27;;;7.55;;
22648;SDS011;11491;41.942;24.220;2022-07-22T04:02:00;12.25;;;8.10;;
22648;SDS011;11491;41.942;24.220;2022-07-22T04:04:26;10.38;;;8.32;;
22648;SDS011;11491;41.942;24.220;2022-07-22T04:06:53;13.25;;;8.10;;
22648;SDS011;11491;41.942;24.220;2022-07-22T04:09:20;8.75;;;7.72;;
22648;SDS011;11491;41.942;24.220;2022-07-22T04:11:49;9.32;;;8.30;;
22648;SDS011;11491;41.942;24.220;2022-07-22T04:14:16;10.32;;;8.60;;
22648;SDS011;11491;41.942;24.220;2022-07-22T04:16:43;13.55;;;8.27;;
22648;SDS011;11491;41.942;24.220;2022-07-22T04:19:10;14.27;;;8.63;;
22648;SDS011;11491;41.942;24.220;2022-07-22T04:21:37;12.30;;;8.27;;
22648;SDS011;11491;41.942;24.220;2022-07-22T04:24:04;11.35;;;8.05;;
22648;SDS011;11491;41.942;24.220;2022-07-22T04:26:31;16.63;;;9.45;;
22648;SDS011;11491;41.942;24.220;2022-07-22T04:28:59;9.90;;;8.90;;
22648;SDS011;11491;41.942;24.220;2022-07-22T04:31:26;12.18;;;7.90;;
22648;SDS011;11491;41.942;24.220;2022-07-22T04:33:53;9.32;;;7.72;;
22648;SDS011;11491;41.942;24.220;2022-07-22T04:36:20;14.77;;;8.77;;
22648;SDS011;11491;41.942;24.220;2022-07-22T04:38:47;12.20;;;8.38;;
22648;SDS011;11491;41.942;24.220;2022-07-22T04:41:13;12.05;;;9.05;;
22648;SDS011;11491;41.942;24.220;2022-07-22T04:43:40;13.98;;;9.02;;
22648;SDS011;11491;41.942;24.220;2022-07-22T04:46:08;9.93;;;8.90;;
22648;SDS011;11491;41.942;24.220;2022-07-22T04:48:35;10.52;;;8.50;;
22648;SDS011;11491;41.942;24.220;2022-07-22T04:51:02;11.88;;;9.10;;
22648;SDS011;11491;41.942;24.220;2022-07-22T04:53:29;8.13;;;7.32;;
22648;SDS011;11491;41.942;24.220;2022-07-22T04:55:56;19.65;;;9.38;;
22648;SDS011;11491;41.942;24.220;2022-07-22T04:58:23;16.55;;;9.27;;
22648;SDS011;11491;41.942;24.220;2022-07-22T05:00:50;12.80;;;9.32;;
22648;SDS011;11491;41.942;24.220;2022-07-22T05:03:18;17.00;;;9.38;;
22648;SDS011;11491;41.942;24.220;2022-07-22T05:05:45;12.73;;;8.27;;
22648;SDS011;11491;41.942;24.220;2022-07-22T05:08:12;14.43;;;8.52;;
22648;SDS011;11491;41.942;24.220;2022-07-22T05:10:38;15.52;;;8.60;;
22648;SDS011;11491;41.942;24.220;2022-07-22T05:13:05;14.18;;;8.88;;
22648;SDS011;11491;41.942;24.220;2022-07-22T05:15:32;13.05;;;8.82;;
22648;SDS011;11491;41.942;24.220;2022-07-22T05:17:59;11.45;;;7.47;;
22648;SDS011;11491;41.942;24.220;2022-07-22T05:20:27;10.65;;;7.53;;
22648;SDS011;11491;41.942;24.220;2022-07-22T05:22:54;12.25;;;9.02;;
22648;SDS011;11491;41.942;24.220;2022-07-22T05:25:21;13.05;;;10.10;;
22648;SDS011;11491;41.942;24.220;2022-07-22T05:27:51;13.88;;;8.90;;
22648;SDS011;11491;41.942;24.220;2022-07-22T05:30:19;12.10;;;8.38;;
22648;SDS011;11491;41.942;24.220;2022-07-22T05:32:46;14.38;;;8.43;;
22648;SDS011;11491;41.942;24.220;2022-07-22T05:35:13;13.82;;;9.50;;
22648;SDS011;11491;41.942;24.220;2022-07-22T05:37:42;12.48;;;9.32;;
22648;SDS011;11491;41.942;24.220;2022-07-22T05:40:09;12.30;;;8.48;;
22648;SDS011;11491;41.942;24.220;2022-07-22T05:42:36;13.13;;;9.05;;
22648;SDS011;11491;41.942;24.220;2022-07-22T05:45:03;12.70;;;8.20;;
22648;SDS011;11491;41.942;24.220;2022-07-22T05:47:31;11.35;;;8.35;;
22648;SDS011;11491;41.942;24.220;2022-07-22T05:49:57;11.77;;;8.40;;
22648;SDS011;11491;41.942;24.220;2022-07-22T05:52:24;12.85;;;7.75;;
22648;SDS011;11491;41.942;24.220;2022-07-22T05:54:52;10.48;;;7.50;;
22648;SDS011;11491;41.942;24.220;2022-07-22T05:57:19;9.75;;;8.35;;
22648;SDS011;11491;41.942;24.220;2022-07-22T05:59:46;8.82;;;7.90;;
22648;SDS011;11491;41.942;24.220;2022-07-22T06:02:13;9.30;;;7.72;;
22648;SDS011;11491;41.942;24.220;2022-07-22T06:04:39;13.00;;;6.35;;
22648;SDS011;11491;41.942;24.220;2022-07-22T06:07:06;9.48;;;6.20;;
22648;SDS011;11491;41.942;24.220;2022-07-22T06:09:33;8.95;;;6.47;;
22648;SDS011;11491;41.942;24.220;2022-07-22T06:12:02;9.32;;;6.18;;
22648;SDS011;11491;41.942;24.220;2022-07-22T06:14:29;14.50;;;6.50;;
22648;SDS011;11491;41.942;24.220;2022-07-22T06:16:55;10.98;;;6.63;;
22648;SDS011;11491;41.942;24.220;2022-07-22T06:19:22;11.73;;;6.15;;
22648;SDS011;11491;41.942;24.220;2022-07-22T06:21:49;8.90;;;6.40;;
22648;SDS011;11491;41.942;24.220;2022-07-22T06:24:16;7.65;;;6.13;;
22648;SDS011;11491;41.942;24.220;2022-07-22T06:26:43;7.65;;;5.53;;
22648;SDS011;11491;41.942;24.220;2022-07-22T06:29:11;13.48;;;5.75;;
22648;SDS011;11491;41.942;24.220;2022-07-22T06:31:38;8.77;;;6.63;;
22648;SDS011;11491;41.942;24.220;2022-07-22T06:34:05;9.32;;;6.65;;
22648;SDS011;11491;41.942;24.220;2022-07-22T06:36:32;7.47;;;6.25;;
22648;SDS011;11491;41.942;24.220;2022-07-22T06:38:59;12.43;;;5.68;;
22648;SDS011;11491;41.942;24.220;2022-07-22T06:41:26;9.88;;;5.15;;
22648;SDS011;11491;41.942;24.220;2022-07-22T06:43:53;13.40;;;5.03;;
22648;SDS011;11491;41.942;24.220;2022-07-22T06:46:21;9.82;;;4.57;;
22648;SDS011;11491;41.942;24.220;2022-07-22T06:48:48;8.68;;;4.85;;
22648;SDS011;11491;41.942;24.220;2022-07-22T06:51:15;7.45;;;4.55;;
22648;SDS011;11491;41.942;24.220;2022-07-22T06:53:42;11.20;;;4.88;;
22648;SDS011;11491;41.942;24.220;2022-07-22T06:56:09;4.95;;;4.15;;
22648;SDS011;11491;41.942;24.220;2022-07-22T06:58:35;9.63;;;4.40;;
22648;SDS011;11491;41.942;24.220;2022-07-22T07:01:02;8.90;;;4.32;;
22648;SDS011;11491;41.942;24.220;2022-07-22T07:03:30;7.57;;;4.85;;
22648;SDS011;11491;41.942;24.220;2022-07-22T07:05:57;10.43;;;4.85;;
22648;SDS011;11491;41.942;24.220;2022-07-22T07:08:24;10.27;;;5.28;;
22648;SDS011;11491;41.942;24.220;2022-07-22T07:10:51;12.00;;;4.80;;
22648;SDS011;11491;41.942;24.220;2022-07-22T07:13:18;12.48;;;5.30;;
22648;SDS011;11491;41.942;24.220;2022-07-22T07:15:45;8.05;;;4.78;;
22648;SDS011;11491;41.942;24.220;2022-07-22T07:18:12;6.35;;;4.82;;
22648;SDS011;11491;41.942;24.220;2022-07-22T07:20:40;8.63;;;5.00;;
22648;SDS011;11491;41.942;24.220;2022-07-22T07:23:07;8.30;;;4.15;;
22648;SDS011;11491;41.942;24.220;2022-07-22T07:25:34;5.78;;;4.50;;
22648;SDS011;11491;41.942;24.220;2022-07-22T07:28:00;7.10;;;4.30;;
22648;SDS011;11491;41.942;24.220;2022-07-22T07:30:28;8.05;;;4.25;;
22648;SDS011;11491;41.942;24.220;2022-07-22T07:32:54;6.00;;;4.15;;
22648;SDS011;11491;41.942;24.220;2022-07-22T07:35:21;8.32;;;4.20;;
22648;SDS011;11491;41.942;24.220;2022-07-22T07:37:50;5.60;;;4.53;;
22648;SDS011;11491;41.942;24.220;2022-07-22T07:40:17;10.07;;;4.55;;
22648;SDS011;11491;41.942;24.220;2022-07-22T07:42:44;8.68;;;4.75;;
22648;SDS011;11491;41.942;24.220;2022-07-22T07:45:11;7.35;;;4.60;;
22648;SDS011;11491;41.942;24.220;2022-07-22T07:47:38;5.88;;;4.20;;
22648;SDS011;11491;41.942;24.220;2022-07-22T07:50:06;9.20;;;4.72;;
22648;SDS011;11491;41.942;24.220;2022-07-22T07:52:36;9.80;;;4.60;;
22648;SDS011;11491;41.942;24.220;2022-07-22T07:55:05;8.23;;;4.43;;
22648;SDS011;11491;41.942;24.220;2022-07-22T07:57:33;9.52;;;4.53;;
22648;SDS011;11491;41.942;24.220;2022-07-22T08:00:00;7.25;;;4.32;;
22648;SDS011;11491;41.942;24.220;2022-07-22T08:02:27;7.55;;;4.60;;
22648;SDS011;11491;41.942;24.220;2022-07-22T08:04:54;10.68;;;4.75;;
22648;SDS011;11491;41.942;24.220;2022-07-22T08:07:20;7.38;;;4.35;;
22648;SDS011;11491;41.942;24.220;2022-07-22T08:09:47;9.52;;;4.75;;
22648;SDS011;11491;41.942;24.220;2022-07-22T08:12:15;5.85;;;4.50;;
22648;SDS011;11491;41.942;24.220;2022-07-22T08:14:43;6.55;;;4.47;;
22648;SDS011;11491;41.942;24.220;2022-07-22T08:17:09;8.20;;;5.00;;
22648;SDS011;11491;41.942;24.220;2022-07-22T08:19:36;9.48;;;4.40;;
22648;SDS011;11491;41.942;24.220;2022-07-22T08:22:03;5.85;;;3.95;;
22648;SDS011;11491;41.942;24.220;2022-07-22T08:24:30;5.65;;;4.45;;
22648;SDS011;11491;41.942;24.220;2022-07-22T08:26:57;7.85;;;4.57;;
22648;SDS011;11491;41.942;24.220;2022-07-22T08:29:25;10.75;;;4.88;;
22648;SDS011;11491;41.942;24.220;2022-07-22T08:31:52;7.55;;;4.80;;
22648;SDS011;11491;41.942;24.220;2022-07-22T08:34:18;5.43;;;4.07;;
22648;SDS011;11491;41.942;24.220;2022-07-22T08:36:45;7.35;;;4.07;;
22648;SDS011;11491;41.942;24.220;2022-07-22T08:39:12;8.57;;;4.65;;
22648;SDS011;11491;41.942;24.220;2022-07-22T08:41:39;10.60;;;4.90;;
22648;SDS011;11491;41.942;24.220;2022-07-22T08:44:07;7.28;;;4.40;;
22648;SDS011;11491;41.942;24.220;2022-07-22T08:46:38;12.52;;;4.60;;
22648;SDS011;11491;41.942;24.220;2022-07-22T08:49:05;8.95;;;4.53;;
22648;SDS011;11491;41.942;24.220;2022-07-22T08:51:32;10.10;;;4.40;;
22648;SDS011;11491;41.942;24.220;2022-07-22T08:53:59;9.52;;;4.80;;
22648;SDS011;11491;41.942;24.220;2022-07-22T08:56:26;11.73;;;4.45;;
22648;SDS011;11491;41.942;24.220;2022-07-22T08:58:53;7.88;;;4.00;;
22648;SDS011;11491;41.942;24.220;2022-07-22T09:01:20;7.95;;;4.43;;
22648;SDS011;11491;41.942;24.220;2022-07-22T09:03:48;10.48;;;4.50;;
22648;SDS011;11491;41.942;24.220;2022-07-22T09:06:16;10.68;;;4.07;;
22648;SDS011;11491;41.942;24.220;2022-07-22T09:08:51;8.63;;;4.55;;
22648;SDS011;11491;41.942;24.220;2022-07-22T09:11:22;5.85;;;3.95;;
22648;SDS011;11491;41.942;24.220;2022-07-22T09:13:50;8.07;;;4.40;;
22648;SDS011;11491;41.942;24.220;2022-07-22T09:19:08;7.68;;;4.50;;
22648;SDS011;11491;41.942;24.220;2022-07-22T09:21:36;5.65;;;4.18;;
22648;SDS011;11491;41.942;24.220;2022-07-22T09:24:04;7.28;;;4.80;;
22648;SDS011;11491;41.942;24.220;2022-07-22T09:26:33;7.03;;;4.57;;
22648;SDS011;11491;41.942;24.220;2022-07-22T09:29:01;7.10;;;4.85;;
22648;SDS011;11491;41.942;24.220;2022-07-22T09:31:30;9.20;;;4.75;;
22648;SDS011;11491;41.942;24.220;2022-07-22T09:33:58;8.98;;;4.88;;
22648;SDS011;11491;41.942;24.220;2022-07-22T09:36:27;14.07;;;4.78;;
22648;SDS011;11491;41.942;24.220;2022-07-22T09:38:54;13.90;;;5.28;;
22648;SDS011;11491;41.942;24.220;2022-07-22T09:41:21;5.97;;;4.50;;
22648;SDS011;11491;41.942;24.220;2022-07-22T09:43:48;8.40;;;4.88;;
22648;SDS011;11491;41.942;24.220;2022-07-22T09:46:16;11.30;;;4.68;;
22648;SDS011;11491;41.942;24.220;2022-07-22T09:48:43;9.25;;;4.47;;
22648;SDS011;11491;41.942;24.220;2022-07-22T09:51:10;8.73;;;4.43;;
22648;SDS011;11491;41.942;24.220;2022-07-22T09:53:38;9.55;;;4.30;;
22648;SDS011;11491;41.942;24.220;2022-07-22T09:56:05;12.50;;;4.75;;
22648;SDS011;11491;41.942;24.220;2022-07-22T09:58:33;8.57;;;4.40;;
22648;SDS011;11491;41.942;24.220;2022-07-22T10:01:02;8.20;;;4.50;;
22648;SDS011;11491;41.942;24.220;2022-07-22T10:03:32;6.20;;;4.22;;
22648;SDS011;11491;41.942;24.220;2022-07-22T10:06:02;7.70;;;4.45;;
22648;SDS011;11491;41.942;24.220;2022-07-22T10:08:30;7.03;;;3.90;;
22648;SDS011;11491;41.942;24.220;2022-07-22T10:11:01;7.47;;;4.38;;
22648;SDS011;11491;41.942;24.220;2022-07-22T10:13:30;8.93;;;4.65;;
22648;SDS011;11491;41.942;24.220;2022-07-22T10:15:57;7.50;;;4.38;;
22648;SDS011;11491;41.942;24.220;2022-07-22T10:18:24;6.78;;;4.78;;
22648;SDS011;11491;41.942;24.220;2022-07-22T10:21:03;10.10;;;4.28;;
22648;SDS011;11491;41.942;24.220;2022-07-22T10:23:31;8.43;;;4.57;;
22648;SDS011;11491;41.942;24.220;2022-07-22T10:26:00;8.57;;;4.88;;
22648;SDS011;11491;41.942;24.220;2022-07-22T10:28:29;7.50;;;4.53;;
22648;SDS011;11491;41.942;24.220;2022-07-22T10:31:16;6.18;;;4.10;;
22648;SDS011;11491;41.942;24.220;2022-07-22T10:33:44;12.25;;;5.32;;
22648;SDS011;11491;41.942;24.220;2022-07-22T10:36:13;10.63;;;4.97;;
22648;SDS011;11491;41.942;24.220;2022-07-22T10:38:44;11.45;;;4.47;;
22648;SDS011;11491;41.942;24.220;2022-07-22T10:41:32;5.90;;;4.65;;
22648;SDS011;11491;41.942;24.220;2022-07-22T10:44:00;9.38;;;4.47;;
22648;SDS011;11491;41.942;24.220;2022-07-22T10:46:37;8.90;;;4.90;;
22648;SDS011;11491;41.942;24.220;2022-07-22T10:49:14;7.40;;;4.68;;
22648;SDS011;11491;41.942;24.220;2022-07-22T10:57:45;10.93;;;4.72;;
22648;SDS011;11491;41.942;24.220;2022-07-22T11:00:13;8.38;;;4.50;;
22648;SDS011;11491;41.942;24.220;2022-07-22T11:02:40;8.68;;;4.30;;
22648;SDS011;11491;41.942;24.220;2022-07-22T11:05:07;8.40;;;4.15;;
22648;SDS011;11491;41.942;24.220;2022-07-22T11:07:40;7.30;;;4.47;;
22648;SDS011;11491;41.942;24.220;2022-07-22T11:10:08;5.70;;;4.03;;
22648;SDS011;11491;41.942;24.220;2022-07-22T11:12:36;7.82;;;4.45;;
22648;SDS011;11491;41.942;24.220;2022-07-22T11:15:05;6.43;;;4.32;;
22648;SDS011;11491;41.942;24.220;2022-07-22T11:17:33;5.78;;;4.07;;
22648;SDS011;11491;41.942;24.220;2022-07-22T11:20:00;7.43;;;3.90;;
22648;SDS011;11491;41.942;24.220;2022-07-22T11:22:27;9.48;;;4.43;;
22648;SDS011;11491;41.942;24.220;2022-07-22T11:24:54;8.50;;;3.95;;
22648;SDS011;11491;41.942;24.220;2022-07-22T11:27:23;9.90;;;4.13;;
22648;SDS011;11491;41.942;24.220;2022-07-22T11:29:52;9.38;;;3.80;;
22648;SDS011;11491;41.942;24.220;2022-07-22T11:32:21;7.22;;;3.65;;
22648;SDS011;11491;41.942;24.220;2022-07-22T11:34:49;4.68;;;4.03;;
22648;SDS011;11491;41.942;24.220;2022-07-22T11:37:17;5.50;;;4.13;;
22648;SDS011;11491;41.942;24.220;2022-07-22T11:39:46;5.53;;;4.22;;
22648;SDS011;11491;41.942;24.220;2022-07-22T11:42:12;6.65;;;3.72;;
22648;SDS011;11491;41.942;24.220;2022-07-22T11:44:39;9.70;;;3.80;;
22648;SDS011;11491;41.942;24.220;2022-07-22T11:47:07;7.07;;;4.28;;
22648;SDS011;11491;41.942;24.220;2022-07-22T11:49:36;7.18;;;4.22;;
22648;SDS011;11491;41.942;24.220;2022-07-22T11:52:04;6.50;;;4.03;;
22648;SDS011;11491;41.942;24.220;2022-07-22T11:54:37;6.93;;;4.10;;
22648;SDS011;11491;41.942;24.220;2022-07-22T11:57:05;7.88;;;3.67;;
22648;SDS011;11491;41.942;24.220;2022-07-22T11:59:32;7.78;;;4.00;;
22648;SDS011;11491;41.942;24.220;2022-07-22T12:01:59;7.75;;;4.30;;
22648;SDS011;11491;41.942;24.220;2022-07-22T12:04:27;7.95;;;4.50;;
22648;SDS011;11491;41.942;24.220;2022-07-22T12:06:57;8.93;;;4.60;;
22648;SDS011;11491;41.942;24.220;2022-07-22T12:09:28;11.32;;;4.10;;
22648;SDS011;11491;41.942;24.220;2022-07-22T12:11:57;5.80;;;4.18;;
22648;SDS011;11491;41.942;24.220;2022-07-22T12:14:24;10.20;;;4.28;;
22648;SDS011;11491;41.942;24.220;2022-07-22T12:16:53;9.65;;;4.47;;
22648;SDS011;11491;41.942;24.220;2022-07-22T12:19:22;4.70;;;3.67;;
22648;SDS011;11491;41.942;24.220;2022-07-22T12:21:50;6.18;;;4.38;;
22648;SDS011;11491;41.942;24.220;2022-07-22T12:24:26;6.93;;;4.03;;
22648;SDS011;11491;41.942;24.220;2022-07-22T12:26:55;5.72;;;4.50;;
22648;SDS011;11491;41.942;24.220;2022-07-22T12:29:23;6.70;;;4.13;;
22648;SDS011;11491;41.942;24.220;2022-07-22T12:31:51;6.35;;;4.55;;
22648;SDS011;11491;41.942;24.220;2022-07-22T12:34:30;6.93;;;3.97;;
22648;SDS011;11491;41.942;24.220;2022-07-22T12:37:10;6.72;;;4.10;;
22648;SDS011;11491;41.942;24.220;2022-07-22T12:39:40;6.28;;;3.88;;
22648;SDS011;11491;41.942;24.220;2022-07-22T12:42:19;9.77;;;4.55;;
22648;SDS011;11491;41.942;24.220;2022-07-22T12:44:59;6.53;;;4.60;;
22648;SDS011;11491;41.942;24.220;2022-07-22T12:47:38;9.23;;;4.82;;
22648;SDS011;11491;41.942;24.220;2022-07-22T12:50:18;13.35;;;5.13;;
22648;SDS011;11491;41.942;24.220;2022-07-22T12:52:50;7.07;;;5.03;;
22648;SDS011;11491;41.942;24.220;2022-07-22T12:55:19;11.65;;;5.75;;
22648;SDS011;11491;41.942;24.220;2022-07-22T12:57:45;16.00;;;5.05;;
22648;SDS011;11491;41.942;24.220;2022-07-22T13:00:15;8.73;;;5.38;;
22648;SDS011;11491;41.942;24.220;2022-07-22T13:02:43;8.43;;;5.20;;
22648;SDS011;11491;41.942;24.220;2022-07-22T13:05:10;14.98;;;4.80;;
22648;SDS011;11491;41.942;24.220;2022-07-22T13:07:37;8.07;;;5.20;;
22648;SDS011;11491;41.942;24.220;2022-07-22T18:39:37;16.08;;;8.27;;
22648;SDS011;11491;41.942;24.220;2022-07-22T18:42:04;17.70;;;9.63;;
22648;SDS011;11491;41.942;24.220;2022-07-22T18:44:31;14.02;;;8.38;;
22648;SDS011;11491;41.942;24.220;2022-07-22T18:46:57;14.18;;;9.20;;
22648;SDS011;11491;41.942;24.220;2022-07-22T18:49:24;13.73;;;8.77;;
22648;SDS011;11491;41.942;24.220;2022-07-22T18:51:51;15.38;;;8.45;;
22648;SDS011;11491;41.942;24.220;2022-07-22T18:54:18;13.45;;;8.68;;
22648;SDS011;11491;41.942;24.220;2022-07-22T18:56:46;17.08;;;8.85;;
22648;SDS011;11491;41.942;24.220;2022-07-22T18:59:13;12.35;;;8.30;;
22648;SDS011;11491;41.942;24.220;2022-07-22T19:01:39;9.93;;;8.68;;
22648;SDS011;11491;41.942;24.220;2022-07-22T19:04:06;12.05;;;8.65;;
22648;SDS011;11491;41.942;24.220;2022-07-22T19:06:33;13.00;;;8.75;;
22648;SDS011;11491;41.942;24.220;2022-07-22T19:09:00;12.43;;;8.23;;
22648;SDS011;11491;41.942;24.220;2022-07-22T19:11:27;12.77;;;8.35;;
22648;SDS011;11491;41.942;24.220;2022-07-22T19:13:55;15.45;;;9.00;;
22648;SDS011;11491;41.942;24.220;2022-07-22T19:16:22;12.45;;;8.85;;
22648;SDS011;11491;41.942;24.220;2022-07-22T19:18:49;10.20;;;8.40;;
22648;SDS011;11491;41.942;24.220;2022-07-22T19:21:16;12.93;;;8.45;;
22648;SDS011;11491;41.942;24.220;2022-07-22T19:23:42;14.02;;;9.15;;
22648;SDS011;11491;41.942;24.220;2022-07-22T19:26:11;12.70;;;9.23;;
22648;SDS011;11491;41.942;24.220;2022-07-22T19:28:38;10.35;;;8.65;;
22648;SDS011;11491;41.942;24.220;2022-07-22T19:31:06;15.02;;;8.82;;
22648;SDS011;11491;41.942;24.220;2022-07-22T19:33:33;11.95;;;8.50;;
22648;SDS011;11491;41.942;24.220;2022-07-22T19:35:59;11.98;;;8.60;;
22648;SDS011;11491;41.942;24.220;2022-07-22T19:38:26;10.20;;;8.38;;
22648;SDS011;11491;41.942;24.220;2022-07-22T19:40:53;10.82;;;8.05;;
22648;SDS011;11491;41.942;24.220;2022-07-22T19:43:20;9.88;;;8.27;;
22648;SDS011;11491;41.942;24.220;2022-07-22T19:45:47;11.95;;;9.23;;
22648;SDS011;11491;41.942;24.220;2022-07-22T19:48:15;12.52;;;9.40;;
22648;SDS011;11491;41.942;24.220;2022-07-22T19:50:42;12.90;;;8.93;;
22648;SDS011;11491;41.942;24.220;2022-07-22T19:53:09;12.98;;;9.07;;
22648;SDS011;11491;41.942;24.220;2022-07-22T19:55:36;16.70;;;9.40;;
22648;SDS011;11491;41.942;24.220;2022-07-22T19:58:03;12.10;;;8.82;;
22648;SDS011;11491;41.942;24.220;2022-07-22T20:00:29;15.30;;;9.90;;
22648;SDS011;11491;41.942;24.220;2022-07-22T20:02:56;15.02;;;10.15;;
22648;SDS011;11491;41.942;24.220;2022-07-22T20:05:24;16.25;;;10.30;;
22648;SDS011;11491;41.942;24.220;2022-07-22T20:07:51;16.15;;;10.15;;
22648;SDS011;11491;41.942;24.220;2022-07-22T20:10:18;12.40;;;9.13;;